TERMINUS DAM (TRM)

Elevation: 752' · KAWEAH R basin · Operator: US Army Corps of Engineers

Provisional data, subject to change.
Query executed Sunday at 15:33:17   clock

Select a sensor type for a plot of data.
Note: Reservoir Flows are daily averages.

Earlier

Date RES ELE    STORAGE    RES CHG    TOC STO    ABV TOC    OUTFLOW    INFLOW    FNF    PPT INC    TEMP MN    TEMP MX    WINDLEN    EVP PAN   
 FEET   AF   AF   AF   AF   CFS   CFS   CFS   INCHES   DEG F   DEG F   MILES   INCHES  
05/27/2016 694.86 144612 576 179125 -34513 521 830 830 0.00 17 33 112 0.33
05/28/2016 695.30 145459 847 179088 -33629 496 941 941 0.00 19 34 112 0.32
05/29/2016 695.86 146540 1081 179097 -32557 477 1041 1041 0.00 19 34 116 0.33
05/30/2016 696.39 147567 1027 180135 -32568 467 1003 1003 0.00 18 35 102 0.32
05/31/2016 697.26 149259 1692 179218 -29959 493 1367 1367 0.00 21 38 99 0.36
06/01/2016 698.29 151273 2014 179342 -28069 517 1554 1554 0.00 23 40 103 0.38
06/02/2016 699.34 153338 2065 179516 -26178 533 1594 1594 0.00 21 40 94 0.33
06/03/2016 700.27 155178 1840 179690 -24512 558 1508 1508 0.00 21 40 101 0.37
06/04/2016 701.38 157386 2208 179983 -22597 569 1707 1707 0.00 24 42 116 0.40
06/05/2016 702.23 159086 1700 180221 -21135 621 1501 1501 0.00 20 39 105 0.37
06/06/2016 703.03 160694 1608 180498 -19804 679 1512 1512 0.00 21 38 95 0.36
06/07/2016 703.89 162431 1737 173969 -18409 682 1580 1580 0.00 22 39 96 0.37
06/08/2016 704.67 164013 1582 174146 -17151 685 1501 1501 0.00 20 37 71 0.31
06/09/2016 705.16 165010 997 174214 -9204 690 1210 1210 0.00 17 34 74 0.29
06/10/2016 705.57 165847 837 174264 -8417 683 1122 1122 0.00 17 33 80 0.28
06/11/2016 705.85 166419 572 174256 -7837 656 960 960 0.00 18 33 83 0.26
06/12/2016 706.05 166829 410 174219 -7390 640 866 866 0.00 17 32 87 0.30
06/13/2016 706.25 167239 410 174209 -6970 655 881 881 0.00 17 34 75 0.31
06/14/2016 706.07 166870 -369 174274 -7404 884 717 717 0.00 14 31 76 0.30
06/15/2016 705.74 166194 -676 174396 -8202 1090 767 767 0.00 12 27 82 0.28
06/16/2016 705.16 165010 -1184 174464 -9454 1205 625 625 0.00 10 28 85 0.28
06/17/2016 704.63 163931 -1079 174612 -10681 1238 714 714 0.00 15 32 101 0.32
06/18/2016 703.77 162188 -1743 174754 -12566 1522 661 661 0.00 15 33 90 0.28
06/19/2016 702.53 159688 -2500 174745 -15057 1780 540 540 0.00 16 36 93 0.34
06/20/2016 701.36 157346 -2342 174815 -17469 1792 633 633 0.00 22 38 101 0.36
06/21/2016 700.17 154979 -2367 174928 -19949 1800 628 628 0.00 22 40 94 0.37
06/22/2016 699.07 152806 -2173 175099 -22293 1772 699 699 0.00 22 39 97 0.37
06/23/2016 697.73 150176 -2630 175184 -25008 1861 556 556 0.00 17 37 84 0.34
06/24/2016 696.21 147218 -2958 175223 -28005 1949 478 -- 0.00 16 36 92 0.35
06/25/2016 694.62 144151 -3067 175270 -31119 2003 477 -- 0.00 19 37 90 0.34
06/26/2016 -- -- -- -- -- -- -- -- -- -- -- -- --

Later | Latest

Warning! This data is preliminary and subject to revision.

Show TRM Map | Plot TRM Data | 1 Month TRM Data | Real-Time TRM Data | TRM Info